createdAt,value
2023-04-12T00:00:52.733Z,12.03
2023-04-12T00:03:21.065Z,11.96
2023-04-12T00:05:54.542Z,11.95
2023-04-12T00:08:32.919Z,11.95
2023-04-12T00:11:00.379Z,11.93
2023-04-12T00:13:26.818Z,11.95
2023-04-12T00:15:53.321Z,11.91
2023-04-12T00:18:19.847Z,11.94
2023-04-12T00:20:46.313Z,11.93
2023-04-12T00:23:13.439Z,11.85
2023-04-12T00:25:39.971Z,11.84
2023-04-12T00:28:06.558Z,11.89
2023-04-12T00:30:33.169Z,11.85
2023-04-12T00:32:59.725Z,11.85
2023-04-12T00:35:26.296Z,11.90
2023-04-12T00:37:52.764Z,11.87
2023-04-12T00:40:19.283Z,11.91
2023-04-12T00:42:46.216Z,11.84
2023-04-12T00:45:13.920Z,11.82
2023-04-12T00:47:43.284Z,11.87
2023-04-12T00:50:11.997Z,11.87
2023-04-12T00:52:39.489Z,11.79
2023-04-12T00:55:09.956Z,11.80
2023-04-12T00:57:39.255Z,11.88
2023-04-12T01:00:17.440Z,11.82
2023-04-12T01:02:47.309Z,11.76
2023-04-12T01:05:23.863Z,11.83
2023-04-12T01:08:10.671Z,11.77
2023-04-12T01:10:55.437Z,11.75
2023-04-12T01:13:27.757Z,11.62
2023-04-12T01:16:00.198Z,11.66
2023-04-12T01:18:30.515Z,11.47
2023-04-12T01:21:20.177Z,11.49
2023-04-12T01:23:58.658Z,11.43
2023-04-12T01:26:34.402Z,11.32
2023-04-12T01:29:09.984Z,11.53
2023-04-12T01:31:39.870Z,11.43
2023-04-12T01:34:08.261Z,11.32
2023-04-12T01:36:37.474Z,11.36
2023-04-12T01:39:05.079Z,11.37
2023-04-12T01:41:32.787Z,11.31
2023-04-12T01:43:59.571Z,11.29
2023-04-12T01:46:26.299Z,11.24
2023-04-12T01:48:54.199Z,11.25
2023-04-12T01:51:28.560Z,11.20
2023-04-12T01:54:00.459Z,11.16
2023-04-12T01:56:31.661Z,11.27
2023-04-12T01:58:59.506Z,11.14
2023-04-12T02:01:26.728Z,11.13
2023-04-12T02:03:53.843Z,11.09
2023-04-12T02:06:23.331Z,11.06
2023-04-12T02:08:49.985Z,11.14
2023-04-12T02:11:16.482Z,11.20
2023-04-12T02:13:42.945Z,11.13
2023-04-12T02:16:13.976Z,11.10
2023-04-12T02:18:41.564Z,11.14
2023-04-12T02:21:08.162Z,11.05
2023-04-12T02:23:34.678Z,11.15
2023-04-12T02:26:01.123Z,11.11
2023-04-12T02:28:27.575Z,11.02
2023-04-12T02:30:54.217Z,11.06
2023-04-12T02:33:21.753Z,10.94
2023-04-12T02:35:48.233Z,11.00
2023-04-12T02:38:14.701Z,10.91
2023-04-12T02:40:42.215Z,11.00
2023-04-12T02:43:09.549Z,10.85
2023-04-12T02:45:36.448Z,10.95
2023-04-12T02:48:03.132Z,10.88
2023-04-12T02:50:29.625Z,10.86
2023-04-12T02:53:01.650Z,10.92
2023-04-12T02:55:28.088Z,10.87
2023-04-12T02:57:55.061Z,10.74
2023-04-12T03:00:21.747Z,10.82
2023-04-12T03:02:49.923Z,10.85
2023-04-12T03:05:17.630Z,10.76
2023-04-12T03:07:44.690Z,10.80
2023-04-12T03:10:14.292Z,10.63
2023-04-12T03:12:40.732Z,10.67
2023-04-12T03:15:08.048Z,10.61
2023-04-12T03:17:34.615Z,10.54
2023-04-12T03:20:10.492Z,10.61
2023-04-12T03:22:37.447Z,10.57
2023-04-12T03:25:05.182Z,10.54
2023-04-12T03:27:31.743Z,10.43
2023-04-12T03:29:58.222Z,10.52
2023-04-12T03:32:25.602Z,10.54
2023-04-12T03:34:52.212Z,10.56
2023-04-12T03:37:19.186Z,10.49
2023-04-12T03:39:48.020Z,10.49
2023-04-12T03:42:25.834Z,10.46
2023-04-12T03:44:56.614Z,10.46
2023-04-12T03:47:23.161Z,10.45
2023-04-12T03:50:06.068Z,10.47
2023-04-12T03:52:35.995Z,10.46
2023-04-12T03:55:02.520Z,10.49
2023-04-12T03:57:28.949Z,10.46
2023-04-12T03:59:55.444Z,10.47
2023-04-12T04:02:22.157Z,10.49
2023-04-12T04:04:48.886Z,10.48
2023-04-12T04:07:16.029Z,10.42
2023-04-12T04:09:42.610Z,10.45
2023-04-12T04:12:09.252Z,10.48
2023-04-12T04:14:36.893Z,10.52
2023-04-12T04:17:03.384Z,10.50
2023-04-12T04:19:29.959Z,10.46
2023-04-12T04:21:56.796Z,10.48
2023-04-12T04:24:25.224Z,10.50
2023-04-12T04:26:54.382Z,10.52
2023-04-12T04:29:20.950Z,10.40
2023-04-12T04:31:48.553Z,10.52
2023-04-12T04:34:16.239Z,10.52
2023-04-12T04:36:43.674Z,10.52
2023-04-12T04:39:10.508Z,10.52
2023-04-12T04:41:39.756Z,10.41
2023-04-12T04:44:09.358Z,10.49
2023-04-12T04:46:39.677Z,10.45
2023-04-12T04:49:06.795Z,10.49
2023-04-12T04:51:36.590Z,10.54
2023-04-12T04:54:03.323Z,10.50
2023-04-12T04:56:29.748Z,10.46
2023-04-12T04:58:57.147Z,10.46
2023-04-12T05:01:28.361Z,10.47
2023-04-12T05:03:55.706Z,10.44
2023-04-12T05:06:22.778Z,10.39
2023-04-12T05:08:49.230Z,10.42
2023-04-12T05:11:15.920Z,10.47
2023-04-12T05:13:42.358Z,10.34
2023-04-12T05:16:09.288Z,10.37
2023-04-12T05:18:35.855Z,10.29
2023-04-12T05:21:03.961Z,10.27
2023-04-12T05:23:31.210Z,10.28
2023-04-12T05:25:57.666Z,10.21
2023-04-12T05:28:24.088Z,10.21
2023-04-12T05:30:51.384Z,10.12
2023-04-12T05:33:17.870Z,10.04
2023-04-12T05:35:44.443Z,10.02
2023-04-12T05:38:11.053Z,10.01
2023-04-12T05:40:37.534Z,9.93
2023-04-12T05:43:04.016Z,9.87
2023-04-12T05:45:30.565Z,9.85
2023-04-12T05:47:57.008Z,9.89
2023-04-12T05:50:23.610Z,9.80
2023-04-12T05:52:51.206Z,9.82
2023-04-12T05:55:18.451Z,9.77
2023-04-12T05:57:46.684Z,9.78
2023-04-12T06:00:14.237Z,9.77
2023-04-12T06:02:41.058Z,9.77
2023-04-12T06:05:08.577Z,9.69
2023-04-12T06:07:35.233Z,9.66
2023-04-12T06:10:01.673Z,9.70
2023-04-12T06:12:28.164Z,9.72
2023-04-12T06:14:55.809Z,9.78
2023-04-12T06:17:22.356Z,9.74
2023-04-12T06:19:48.894Z,9.68
2023-04-12T06:22:15.954Z,9.68
2023-04-12T06:24:42.384Z,9.72
2023-04-12T06:27:09.138Z,9.81
2023-04-12T06:29:35.629Z,9.74
2023-04-12T06:32:02.161Z,9.81
2023-04-12T06:34:28.680Z,9.82
2023-04-12T06:36:55.195Z,9.79
2023-04-12T06:39:21.884Z,9.81
2023-04-12T06:41:50.247Z,9.72
2023-04-12T06:44:16.949Z,9.82
2023-04-12T06:46:43.514Z,9.77
2023-04-12T06:49:10.638Z,9.83
2023-04-12T06:51:37.566Z,9.90
2023-04-12T06:54:04.049Z,9.88
2023-04-12T06:56:30.609Z,9.89
2023-04-12T06:58:57.329Z,9.93
2023-04-12T07:01:24.129Z,9.94
2023-04-12T07:03:50.933Z,9.93
2023-04-12T07:06:24.961Z,9.98
2023-04-12T07:08:52.561Z,9.97
2023-04-12T07:11:21.815Z,9.97
2023-04-12T07:13:49.379Z,9.93
2023-04-12T07:16:16.473Z,10.03
2023-04-12T07:18:42.945Z,9.96
2023-04-12T07:21:09.438Z,10.04
2023-04-12T07:23:35.899Z,10.13
2023-04-12T07:26:02.733Z,10.14
2023-04-12T07:28:29.219Z,10.17
2023-04-12T07:30:55.860Z,10.16
2023-04-12T07:33:22.506Z,10.22
2023-04-12T07:35:49.186Z,10.15
2023-04-12T07:38:16.879Z,10.20
2023-04-12T07:40:43.647Z,10.21
2023-04-12T07:43:10.393Z,10.30
2023-04-12T07:45:38.101Z,10.30
2023-04-12T07:48:04.832Z,10.41
2023-04-12T07:50:31.374Z,10.45
2023-04-12T07:53:28.569Z,10.44
2023-04-12T07:55:56.321Z,10.51
2023-04-12T07:58:24.068Z,10.49
2023-04-12T08:00:51.055Z,10.44
2023-04-12T08:03:19.003Z,10.51
2023-04-12T08:05:47.241Z,10.54
2023-04-12T08:08:14.142Z,10.59
2023-04-12T08:10:40.938Z,10.55
2023-04-12T08:13:07.538Z,10.59
2023-04-12T08:15:34.132Z,10.57
2023-04-12T08:18:01.636Z,10.53
2023-04-12T08:20:28.197Z,10.47
2023-04-12T08:22:54.959Z,10.50
2023-04-12T08:25:22.229Z,10.45
2023-04-12T08:27:50.268Z,10.46
2023-04-12T08:30:17.815Z,10.46
2023-04-12T08:32:44.520Z,10.43
2023-04-12T08:35:11.923Z,10.54
2023-04-12T08:37:38.866Z,10.53
2023-04-12T08:40:07.283Z,10.57
2023-04-12T08:42:38.142Z,10.68
2023-04-12T08:45:06.215Z,10.69
2023-04-12T08:47:34.746Z,10.76
2023-04-12T08:50:08.242Z,10.83
2023-04-12T08:52:36.356Z,10.90
2023-04-12T08:55:04.212Z,10.96
2023-04-12T08:57:32.646Z,11.03
2023-04-12T09:00:00.951Z,11.00
2023-04-12T09:02:28.331Z,11.08
2023-04-12T09:04:55.637Z,11.02
2023-04-12T09:07:23.351Z,11.08
2023-04-12T09:09:50.757Z,11.04
2023-04-12T09:12:20.011Z,11.06
2023-04-12T09:14:46.821Z,11.01
2023-04-12T09:17:27.803Z,11.03
2023-04-12T09:19:57.288Z,11.07
2023-04-12T09:22:37.621Z,11.05
2023-04-12T09:25:04.375Z,11.04
2023-04-12T09:27:46.506Z,10.96
2023-04-12T09:30:13.634Z,11.01
2023-04-12T09:32:40.186Z,10.93
2023-04-12T09:35:07.616Z,10.90
2023-04-12T09:37:34.111Z,11.02
2023-04-12T09:40:02.151Z,11.05
2023-04-12T09:42:33.855Z,11.05
2023-04-12T09:45:18.381Z,11.18
2023-04-12T09:47:45.006Z,11.29
2023-04-12T09:50:20.646Z,11.33
2023-04-12T09:52:47.239Z,11.41
2023-04-12T09:55:14.339Z,11.41
2023-04-12T09:57:42.946Z,11.42
2023-04-12T10:00:14.340Z,11.53
2023-04-12T10:02:43.858Z,11.69
2023-04-12T10:05:13.386Z,11.71
2023-04-12T10:07:44.004Z,11.73
2023-04-12T10:10:15.987Z,11.81
2023-04-12T10:12:45.626Z,11.77
2023-04-12T10:15:13.521Z,11.71
2023-04-12T10:17:45.720Z,11.68
2023-04-12T10:20:13.504Z,11.70
2023-04-12T10:22:50.791Z,11.76
2023-04-12T10:25:20.576Z,11.68
2023-04-12T10:27:47.923Z,11.79
2023-04-12T10:30:22.431Z,11.70
2023-04-12T10:33:09.930Z,11.75
2023-04-12T10:35:48.359Z,11.82
2023-04-12T10:38:15.663Z,11.82
2023-04-12T10:41:11.474Z,11.82
2023-04-12T10:43:38.155Z,11.76
2023-04-12T10:46:06.635Z,11.73
2023-04-12T10:48:39.895Z,11.65
2023-04-12T10:51:25.818Z,11.70
2023-04-12T10:53:53.650Z,11.75
2023-04-12T10:56:32.843Z,11.72
2023-04-12T10:59:01.797Z,11.75
2023-04-12T11:01:29.783Z,11.90
2023-04-12T11:04:22.005Z,12.07
2023-04-12T11:07:04.663Z,12.22
2023-04-12T11:09:33.915Z,12.24
2023-04-12T11:12:08.183Z,12.32
2023-04-12T11:14:52.122Z,12.28
2023-04-12T11:17:20.497Z,12.30
2023-04-12T11:19:49.654Z,12.34
2023-04-12T11:22:17.664Z,12.27
2023-04-12T11:24:52.248Z,12.01
2023-04-12T11:27:20.579Z,11.97
2023-04-12T11:29:56.078Z,11.87
2023-04-12T11:32:24.937Z,11.84
2023-04-12T11:34:51.629Z,11.80
2023-04-12T11:37:19.623Z,11.78
2023-04-12T11:39:47.174Z,11.66
2023-04-12T11:42:19.508Z,11.76
2023-04-12T11:44:57.134Z,11.82
2023-04-12T11:47:26.755Z,11.88
2023-04-12T11:49:57.121Z,11.92
2023-04-12T11:52:33.672Z,11.84
2023-04-12T11:55:06.566Z,11.83
2023-04-12T11:57:35.825Z,11.86
2023-04-12T12:00:05.979Z,11.91
2023-04-12T12:02:39.291Z,11.97
2023-04-12T12:05:13.146Z,12.05
2023-04-12T12:07:40.217Z,12.18
2023-04-12T12:10:07.596Z,12.32
2023-04-12T12:12:34.262Z,12.40
2023-04-12T12:15:02.076Z,12.74
2023-04-12T12:17:29.055Z,13.02
2023-04-12T12:19:58.273Z,13.35
2023-04-12T12:22:24.732Z,14.10
2023-04-12T12:24:52.451Z,14.83
2023-04-12T12:27:24.011Z,15.16
2023-04-12T12:29:53.349Z,15.41
2023-04-12T12:32:20.807Z,15.52
2023-04-12T12:34:54.801Z,15.62
2023-04-12T12:37:26.082Z,16.09
2023-04-12T12:40:16.373Z,16.84
2023-04-12T12:42:46.926Z,16.45
2023-04-12T12:45:13.882Z,15.91
2023-04-12T12:47:54.573Z,15.93
2023-04-12T12:50:26.503Z,16.04
2023-04-12T12:52:54.182Z,16.09
2023-04-12T12:55:21.877Z,15.91
2023-04-12T12:58:02.184Z,15.44
2023-04-12T13:00:32.317Z,15.19
2023-04-12T13:02:59.281Z,15.02
2023-04-12T13:05:26.035Z,14.92
2023-04-12T13:07:52.500Z,14.96
2023-04-12T13:10:18.924Z,15.12
2023-04-12T13:12:46.003Z,15.84
2023-04-12T13:15:22.016Z,16.96
2023-04-12T13:17:49.421Z,17.39
2023-04-12T13:20:16.464Z,17.55
2023-04-12T13:22:43.179Z,18.00
2023-04-12T13:25:09.896Z,18.58
2023-04-12T13:27:36.869Z,18.47
2023-04-12T13:30:04.317Z,18.17
2023-04-12T13:32:30.983Z,18.52
2023-04-12T13:34:57.442Z,18.32
2023-04-12T13:37:24.831Z,18.56
2023-04-12T13:39:52.515Z,17.87
2023-04-12T13:42:19.018Z,17.71
2023-04-12T13:44:45.895Z,17.74
2023-04-12T13:47:12.585Z,17.63
2023-04-12T13:49:39.079Z,17.26
2023-04-12T13:52:05.749Z,16.63
2023-04-12T13:54:32.325Z,16.54
2023-04-12T13:56:59.327Z,16.15
2023-04-12T13:59:26.806Z,15.89
2023-04-12T14:01:54.178Z,15.53
2023-04-12T14:04:21.050Z,15.65
2023-04-12T14:06:47.619Z,15.28
2023-04-12T14:09:28.215Z,14.62
2023-04-12T14:11:56.208Z,14.59
2023-04-12T14:14:23.704Z,14.20
2023-04-12T14:16:56.961Z,14.01
2023-04-12T14:19:24.056Z,13.87
2023-04-12T14:21:50.720Z,13.44
2023-04-12T14:24:18.543Z,12.94
2023-04-12T14:26:45.344Z,12.77
2023-04-12T14:29:12.318Z,12.71
2023-04-12T14:31:38.912Z,12.47
2023-04-12T14:34:06.291Z,12.46
2023-04-12T14:36:33.426Z,12.25
2023-04-12T14:39:01.594Z,12.04
2023-04-12T14:41:28.356Z,11.93
2023-04-12T14:43:54.827Z,11.84
2023-04-12T14:46:21.502Z,11.84
2023-04-12T14:48:48.003Z,11.70
2023-04-12T14:51:14.494Z,11.58
2023-04-12T14:53:42.631Z,11.37
2023-04-12T14:56:25.038Z,11.48
2023-04-12T14:58:54.163Z,11.51
2023-04-12T15:01:21.758Z,11.46
2023-04-12T15:03:48.356Z,11.50
2023-04-12T15:06:15.581Z,11.53
2023-04-12T15:08:42.707Z,11.57
2023-04-12T15:11:10.782Z,11.61
2023-04-12T15:13:39.858Z,11.62
2023-04-12T15:16:08.844Z,11.67
2023-04-12T15:18:41.622Z,11.72
2023-04-12T15:21:10.348Z,11.55
2023-04-12T15:23:38.404Z,11.61
2023-04-12T15:26:12.065Z,11.55
2023-04-12T15:28:38.694Z,11.49
2023-04-12T15:31:05.801Z,11.55
2023-04-12T15:33:34.343Z,11.45
2023-04-12T15:36:02.369Z,11.49
2023-04-12T15:38:29.868Z,11.46
2023-04-12T15:40:58.550Z,11.56
2023-04-12T15:43:25.572Z,11.56
2023-04-12T15:45:54.504Z,11.66
2023-04-12T15:48:22.637Z,11.50
2023-04-12T15:50:50.014Z,11.27
2023-04-12T15:53:19.171Z,11.45
2023-04-12T15:55:45.846Z,11.37
2023-04-12T15:58:13.503Z,11.31
2023-04-12T16:00:40.962Z,11.73
2023-04-12T16:03:09.089Z,11.75
2023-04-12T16:05:35.991Z,11.73
2023-04-12T16:08:03.095Z,11.88
2023-04-12T16:10:30.308Z,11.69
2023-04-12T16:12:57.163Z,11.71
2023-04-12T16:15:23.878Z,11.82
2023-04-12T16:17:55.313Z,11.89
2023-04-12T16:20:22.752Z,11.82
2023-04-12T16:22:54.162Z,11.87
2023-04-12T16:25:25.454Z,11.90
2023-04-12T16:27:52.280Z,11.87
2023-04-12T16:30:18.868Z,11.80
2023-04-12T16:32:50.677Z,11.70
2023-04-12T16:35:17.469Z,11.64
2023-04-12T16:37:45.947Z,11.53
2023-04-12T16:40:12.985Z,11.50
2023-04-12T16:42:44.163Z,11.41
2023-04-12T16:45:13.897Z,11.38
2023-04-12T16:47:40.904Z,11.42
2023-04-12T16:50:12.363Z,10.88
2023-04-12T16:52:39.866Z,10.59
2023-04-12T16:55:06.943Z,10.35
2023-04-12T16:57:33.447Z,10.07
2023-04-12T17:00:00.495Z,10.08
2023-04-12T17:02:27.380Z,9.86
2023-04-12T17:04:54.016Z,9.92
2023-04-12T17:07:20.480Z,9.94
2023-04-12T17:09:46.958Z,9.87
2023-04-12T17:12:13.444Z,9.90
2023-04-12T17:14:39.942Z,9.93
2023-04-12T17:17:06.822Z,10.00
2023-04-12T17:19:33.776Z,9.96
2023-04-12T17:22:00.559Z,9.99
2023-04-12T17:24:27.097Z,9.96
2023-04-12T17:26:53.901Z,9.90
2023-04-12T17:29:20.495Z,9.87
2023-04-12T17:31:50.597Z,10.00
2023-04-12T17:34:19.665Z,10.18
2023-04-12T17:36:46.181Z,10.24
2023-04-12T17:39:12.631Z,10.16
2023-04-12T17:41:39.386Z,10.15
2023-04-12T17:44:06.727Z,10.24
2023-04-12T17:46:34.752Z,10.19
2023-04-12T17:49:04.083Z,10.14
2023-04-12T17:51:32.152Z,9.98
2023-04-12T17:54:00.343Z,10.06
2023-04-12T17:56:26.913Z,10.05
2023-04-12T17:58:53.417Z,10.04
2023-04-12T18:01:19.942Z,10.00
2023-04-12T18:03:47.579Z,9.96
2023-04-12T18:06:14.227Z,9.96
2023-04-12T18:08:40.740Z,9.88
2023-04-12T18:11:07.992Z,9.84
2023-04-12T18:13:34.493Z,9.84
2023-04-12T18:16:01.529Z,9.82
2023-04-12T18:18:28.097Z,9.80
2023-04-12T18:20:54.613Z,9.76
2023-04-12T18:23:21.456Z,9.75
2023-04-12T18:25:48.099Z,9.71
2023-04-12T18:28:14.996Z,9.65
2023-04-12T18:30:41.593Z,9.58
2023-04-12T18:33:08.298Z,9.55
2023-04-12T18:35:35.000Z,9.49
2023-04-12T18:38:01.484Z,9.42
2023-04-12T18:40:28.543Z,9.42
2023-04-12T18:42:55.032Z,9.34
2023-04-12T18:45:22.374Z,9.37
2023-04-12T18:47:52.888Z,9.33
2023-04-12T18:50:19.626Z,9.28
2023-04-12T18:52:46.157Z,9.26
2023-04-12T18:55:12.653Z,9.22
2023-04-12T18:57:39.311Z,9.16
2023-04-12T19:00:13.497Z,9.20
2023-04-12T19:02:40.931Z,9.15
2023-04-12T19:05:10.352Z,9.15
2023-04-12T19:07:37.411Z,9.15
2023-04-12T19:10:04.592Z,9.15
2023-04-12T19:12:31.699Z,9.13
2023-04-12T19:14:58.330Z,9.12
2023-04-12T19:17:27.578Z,9.16
2023-04-12T19:19:54.925Z,9.19
2023-04-12T19:22:21.665Z,9.21
2023-04-12T19:24:49.876Z,9.22
2023-04-12T19:27:16.767Z,9.26
2023-04-12T19:29:44.073Z,9.32
2023-04-12T19:32:13.648Z,9.34
2023-04-12T19:34:40.589Z,9.37
2023-04-12T19:37:07.881Z,9.36
2023-04-12T19:39:34.593Z,9.38
2023-04-12T19:42:02.276Z,9.42
2023-04-12T19:44:29.297Z,9.40
2023-04-12T19:46:56.110Z,9.34
2023-04-12T19:49:23.930Z,9.36
2023-04-12T19:51:53.225Z,9.38
2023-04-12T19:54:23.658Z,9.42
2023-04-12T19:56:50.531Z,9.37
2023-04-12T19:59:17.836Z,9.35
2023-04-12T20:01:50.345Z,9.35
2023-04-12T20:04:21.683Z,9.29
2023-04-12T20:06:50.061Z,9.28
2023-04-12T20:09:17.232Z,9.22
2023-04-12T20:11:44.079Z,9.21
2023-04-12T20:14:10.626Z,9.23
2023-04-12T20:16:38.316Z,9.18
2023-04-12T20:19:05.331Z,9.19
2023-04-12T20:21:34.121Z,9.16
2023-04-12T20:24:01.945Z,9.14
2023-04-12T20:26:31.497Z,9.10
2023-04-12T20:28:59.849Z,9.07
2023-04-12T20:31:27.366Z,8.99
2023-04-12T20:33:58.294Z,9.02
2023-04-12T20:36:26.224Z,9.08
2023-04-12T20:38:53.779Z,9.09
2023-04-12T20:41:20.449Z,8.95
2023-04-12T20:43:47.857Z,9.09
2023-04-12T20:46:17.044Z,9.07
2023-04-12T20:48:44.588Z,9.12
2023-04-12T20:51:11.827Z,9.11
2023-04-12T20:53:38.457Z,9.15
2023-04-12T20:56:05.266Z,9.17
2023-04-12T20:58:34.861Z,9.21
2023-04-12T21:01:04.941Z,9.19
2023-04-12T21:03:38.427Z,9.19
2023-04-12T21:06:09.204Z,9.16
2023-04-12T21:08:35.990Z,9.11
2023-04-12T21:11:02.631Z,9.06
2023-04-12T21:13:30.647Z,9.04
2023-04-12T21:15:58.660Z,9.16
2023-04-12T21:18:25.203Z,9.20
2023-04-12T21:20:51.878Z,9.16
2023-04-12T21:23:18.410Z,9.06
2023-04-12T21:25:48.486Z,9.08
2023-04-12T21:28:15.006Z,8.98
2023-04-12T21:30:42.111Z,9.02
2023-04-12T21:33:08.649Z,9.02
2023-04-12T21:35:35.193Z,9.00
2023-04-12T21:38:01.734Z,9.02
2023-04-12T21:40:28.327Z,9.00
2023-04-12T21:42:54.787Z,8.90
2023-04-12T21:45:21.326Z,8.86
2023-04-12T21:47:48.825Z,8.81
2023-04-12T21:50:15.698Z,8.74
2023-04-12T21:52:47.144Z,8.70
2023-04-12T21:55:13.712Z,8.64
2023-04-12T21:57:40.437Z,8.61
2023-04-12T22:00:09.899Z,8.53
2023-04-12T22:02:36.818Z,8.48
2023-04-12T22:05:03.584Z,8.41
2023-04-12T22:07:30.234Z,8.40
2023-04-12T22:09:58.588Z,8.43
2023-04-12T22:12:25.706Z,8.37
2023-04-12T22:14:52.200Z,8.27
2023-04-12T22:17:22.344Z,8.44
2023-04-12T22:19:49.007Z,8.44
2023-04-12T22:22:16.042Z,8.49
2023-04-12T22:24:42.940Z,8.47
2023-04-12T22:27:09.504Z,8.49
2023-04-12T22:29:37.531Z,8.51
2023-04-12T22:32:04.120Z,8.51
2023-04-12T22:34:30.625Z,8.53
2023-04-12T22:36:59.958Z,8.54
2023-04-12T22:39:26.715Z,8.46
2023-04-12T22:41:53.716Z,8.45
2023-04-12T22:44:23.556Z,8.36
2023-04-12T22:46:51.310Z,8.37
2023-04-12T22:49:18.418Z,8.35
2023-04-12T22:51:44.910Z,8.33
2023-04-12T22:54:12.081Z,8.20
2023-04-12T22:56:47.790Z,8.29
2023-04-12T22:59:15.493Z,8.28
2023-04-12T23:01:42.321Z,8.23
2023-04-12T23:04:09.716Z,8.22
2023-04-12T23:06:39.799Z,8.24
2023-04-12T23:09:06.999Z,8.20
2023-04-12T23:11:35.334Z,8.24
2023-04-12T23:14:02.564Z,8.25
2023-04-12T23:16:29.647Z,8.24
2023-04-12T23:18:56.154Z,8.28
2023-04-12T23:21:22.613Z,8.22
2023-04-12T23:23:49.506Z,8.28
2023-04-12T23:26:15.993Z,8.30
2023-04-12T23:28:43.183Z,8.21
2023-04-12T23:31:09.854Z,8.26
2023-04-12T23:33:36.362Z,8.22
2023-04-12T23:36:03.499Z,8.29
2023-04-12T23:38:33.889Z,8.31
2023-04-12T23:41:02.379Z,8.29
2023-04-12T23:43:29.707Z,8.26
2023-04-12T23:45:57.292Z,8.38
2023-04-12T23:48:24.457Z,8.38
2023-04-12T23:50:51.815Z,8.40
2023-04-12T23:53:19.123Z,8.51
2023-04-12T23:55:53.359Z,8.42
2023-04-12T23:58:20.995Z,8.48
